EGSS/STN METAR and TAF weather

Enter ICAO airport designator
Station Type Date Time Source
EGSS METAR 2018/07/21 22:50 UTC NOAA

EGSS 212250Z AUTO VRB03KT 9999 NCD 20/13 Q1015


Station Type Date Time Source
EGSS Decoded METAR 2018/07/21 22:50 UTC NOAA

Stansted Airport, United Kingdom (EGSS) 51-53N 000-14E 0M
Jul 21, 2018 - 06:50 PM EDT / 2018.07.21 2250 UTC
Wind: Variable at 3 MPH (3 KT):0
Visibility: greater than 7 mile(s):0
Temperature: 68 F (20 C)
Dew Point: 55 F (13 C)
Relative Humidity: 64%
Pressure (altimeter): 29.97 in. Hg (1015 hPa)
ob: EGSS 212250Z AUTO VRB03KT 9999 NCD 20/13 Q1015
cycle: 23

Station Type Date Time Source
EGSS TAF 2018/07/21 18:15 UTC NOAA

TAF EGSS 211657Z 2118/2224 34003KT 9999 SCT025 PROB30 2205/2208 8000


Example: see airport list